Time;durP1;ratioP1;P1;durP2;ratioP2;P2;SDS_P1;SDS_P2;PMS_P1;PMS_P2;Temp;Humidity;BMP_temperature;BMP_pressure;BME280_temperature;BME280_humidity;BME280_pressure;Samples;Min_cycle;Max_cycle;Signal;HPM_P1;HPM_P2
2022/09/16 00:00:30;;;;;;;3.87;1.50;;;13.90;99.90;;;;;;5051498;28;20185;-52
2022/09/16 00:02:57;;;;;;;2.10;1.57;;;13.80;99.90;;;;;;5050524;28;20473;-51
2022/09/16 00:05:23;;;;;;;3.50;2.00;;;13.90;99.90;;;;;;5050958;28;21060;-50
2022/09/16 00:07:49;;;;;;;3.03;2.07;;;13.90;99.90;;;;;;5050554;28;20511;-46
2022/09/16 00:10:15;;;;;;;6.43;1.63;;;13.90;99.90;;;;;;5051162;28;20424;-51
2022/09/16 00:12:41;;;;;;;4.57;1.80;;;13.90;99.90;;;;;;5050318;28;20431;-49
2022/09/16 00:15:08;;;;;;;2.87;1.80;;;13.90;99.90;;;;;;5051127;28;20428;-54
2022/09/16 00:17:33;;;;;;;2.80;1.50;;;13.90;99.90;;;;;;5050964;28;20436;-48
2022/09/16 00:19:59;;;;;;;2.03;1.47;;;13.90;99.90;;;;;;5059191;28;20430;-50
2022/09/16 00:22:28;;;;;;;5.80;1.77;;;13.90;99.90;;;;;;5052800;28;20193;-51
2022/09/16 00:24:53;;;;;;;1.73;1.23;;;13.80;99.90;;;;;;5049152;28;20470;-48
2022/09/16 00:27:19;;;;;;;3.90;1.30;;;13.80;99.90;;;;;;5050722;28;20420;-51
2022/09/16 00:29:45;;;;;;;4.03;1.60;;;13.70;99.90;;;;;;5050765;28;20196;-54
2022/09/16 00:32:11;;;;;;;2.23;1.70;;;13.80;99.90;;;;;;5050625;28;20196;-50
2022/09/16 00:34:37;;;;;;;2.40;1.70;;;13.80;99.90;;;;;;5049838;28;20272;-53
2022/09/16 00:37:03;;;;;;;2.80;1.30;;;13.80;99.90;;;;;;5050695;28;20424;-51
2022/09/16 00:39:29;;;;;;;2.40;1.30;;;13.80;99.90;;;;;;5050751;28;20474;-51
2022/09/16 00:41:55;;;;;;;2.37;1.47;;;13.80;99.90;;;;;;5050654;28;20427;-53
2022/09/16 00:44:54;;;;;;;4.50;1.40;;;13.70;99.90;;;;;;5049832;28;20201;-51
2022/09/16 00:47:25;;;;;;;3.00;1.50;;;13.70;99.90;;;;;;5050388;28;20186;-47
2022/09/16 00:49:58;;;;;;;3.30;1.47;;;13.70;99.90;;;;;;5050306;28;20459;-49
2022/09/16 00:52:25;;;;;;;5.80;1.40;;;13.70;99.90;;;;;;5050238;28;20428;-51
2022/09/16 00:54:51;;;;;;;3.00;1.73;;;13.60;99.90;;;;;;5048669;28;20416;-52
2022/09/16 00:57:17;;;;;;;2.03;1.63;;;13.70;99.90;;;;;;5050169;28;20428;-50
2022/09/16 00:59:47;;;;;;;6.63;1.40;;;13.80;99.90;;;;;;5050097;28;20189;-47
2022/09/16 01:02:17;;;;;;;5.67;2.17;;;13.80;99.90;;;;;;5050486;28;20481;-48
2022/09/16 01:04:55;;;;;;;1.77;1.17;;;13.80;99.90;;;;;;5049396;28;20459;-49
2022/09/16 01:07:31;;;;;;;2.90;1.40;;;13.80;99.90;;;;;;5048829;28;20412;-51
2022/09/16 01:09:57;;;;;;;3.23;1.50;;;13.90;99.90;;;;;;5049705;28;20416;-47
2022/09/16 01:12:26;;;;;;;3.73;1.50;;;13.90;99.90;;;;;;5048895;28;20417;-47
2022/09/16 01:14:54;;;;;;;6.87;4.13;;;13.80;99.90;;;;;;5048780;28;20186;-49
2022/09/16 01:17:28;;;;;;;3.37;1.30;;;13.80;99.90;;;;;;5050023;28;20417;-51
2022/09/16 01:20:23;;;;;;;4.43;1.57;;;13.70;99.90;;;;;;5056949;28;20786;-49
2022/09/16 01:23:21;;;;;;;1.77;1.33;;;13.90;99.90;;;;;;5036985;28;20436;-49
2022/09/16 01:25:55;;;;;;;2.17;1.23;;;13.90;99.90;;;;;;5049856;28;20455;-48
2022/09/16 01:28:30;;;;;;;2.40;1.57;;;13.90;99.90;;;;;;5049881;28;20462;-53
2022/09/16 01:31:01;;;;;;;6.63;1.60;;;13.80;99.90;;;;;;5048520;28;20474;-51
2022/09/16 01:34:19;;;;;;;3.60;1.60;;;13.70;99.90;;;;;;5047858;28;20420;-52
2022/09/16 01:36:53;;;;;;;2.00;1.27;;;13.60;99.90;;;;;;5051926;28;20467;-53
2022/09/16 01:39:22;;;;;;;3.97;1.60;;;13.60;99.90;;;;;;5049759;28;20416;-53
2022/09/16 01:41:53;;;;;;;3.03;1.60;;;13.60;99.90;;;;;;5049528;28;20424;-52
2022/09/16 01:44:31;;;;;;;9.93;1.73;;;13.50;99.90;;;;;;5048291;28;20535;-52
2022/09/16 01:47:02;;;;;;;3.43;1.53;;;13.60;99.90;;;;;;5048543;28;20553;-48
2022/09/16 01:49:59;;;;;;;4.50;1.40;;;13.50;99.90;;;;;;5049360;28;20511;-48
2022/09/16 01:52:45;;;;;;;5.00;1.60;;;13.60;99.90;;;;;;5049521;28;20780;-51
2022/09/16 01:55:24;;;;;;;5.77;1.30;;;13.50;99.90;;;;;;5048668;28;20423;-50
2022/09/16 01:57:56;;;;;;;3.47;1.20;;;13.50;99.90;;;;;;5049191;28;20506;-52
2022/09/16 02:00:22;;;;;;;4.40;1.60;;;13.60;99.90;;;;;;5049749;28;20420;-50
2022/09/16 02:03:00;;;;;;;2.40;1.13;;;13.60;99.90;;;;;;5048906;28;20469;-50
2022/09/16 02:05:48;;;;;;;1.20;0.90;;;13.60;99.90;;;;;;5049666;28;20871;-52
2022/09/16 02:08:21;;;;;;;2.83;1.10;;;13.70;99.90;;;;;;5037039;28;20754;-50
2022/09/16 02:10:52;;;;;;;3.40;1.10;;;13.80;99.90;;;;;;5049610;28;20424;-53
2022/09/16 02:13:28;;;;;;;2.80;1.13;;;13.80;99.90;;;;;;5048808;28;20779;-51
2022/09/16 02:15:58;;;;;;;3.73;1.27;;;13.80;99.90;;;;;;5049491;28;20469;-52
2022/09/16 02:18:29;;;;;;;5.43;1.30;;;13.80;99.90;;;;;;5049204;28;20416;-52
2022/09/16 02:20:57;;;;;;;2.27;1.10;;;13.80;99.90;;;;;;5059927;28;20452;-49
2022/09/16 02:23:27;;;;;;;4.67;1.47;;;13.80;99.90;;;;;;5048583;28;20499;-50
2022/09/16 02:25:56;;;;;;;5.97;1.60;;;13.80;99.90;;;;;;5049385;28;20435;-48
2022/09/16 02:28:32;;;;;;;6.63;1.37;;;13.90;99.90;;;;;;5049160;28;20420;-53
2022/09/16 02:31:02;;;;;;;2.83;1.57;;;13.80;99.90;;;;;;5049638;28;20416;-51
2022/09/16 02:33:37;;;;;;;6.00;2.20;;;13.70;99.90;;;;;;5052100;28;20416;-54
2022/09/16 02:36:05;;;;;;;3.27;1.40;;;13.70;99.90;;;;;;5051689;28;20435;-53
2022/09/16 02:38:42;;;;;;;2.20;1.53;;;13.70;99.90;;;;;;5052655;28;20447;-50
2022/09/16 02:41:13;;;;;;;3.53;1.70;;;13.70;99.90;;;;;;5053067;28;20451;-51
2022/09/16 02:43:43;;;;;;;4.20;1.90;;;13.60;99.90;;;;;;5051577;28;20481;-48
2022/09/16 02:46:34;;;;;;;4.67;1.67;;;13.70;99.90;;;;;;5052960;28;20428;-52
2022/09/16 02:49:39;;;;;;;2.53;1.33;;;13.70;99.90;;;;;;5052680;28;20775;-53
2022/09/16 02:52:21;;;;;;;5.10;1.57;;;13.70;99.90;;;;;;5052513;28;20412;-52
2022/09/16 02:55:12;;;;;;;3.83;1.90;;;13.80;99.90;;;;;;5051225;28;20514;-47
2022/09/16 02:57:37;;;;;;;5.30;1.80;;;13.70;99.90;;;;;;5052553;28;20470;-51
2022/09/16 03:00:04;;;;;;;6.50;1.50;;;13.70;99.90;;;;;;5052364;28;20436;-48
2022/09/16 03:02:32;;;;;;;3.47;1.73;;;13.60;99.90;;;;;;5052154;28;20303;-50
2022/09/16 03:04:59;;;;;;;4.77;1.53;;;13.60;99.90;;;;;;5051738;28;20567;-50
2022/09/16 03:07:25;;;;;;;3.57;1.77;;;13.50;99.90;;;;;;5052254;28;20511;-50
2022/09/16 03:09:51;;;;;;;4.23;1.90;;;13.50;99.90;;;;;;5052255;28;20503;-49
2022/09/16 03:12:46;;;;;;;3.63;1.60;;;13.60;99.90;;;;;;5052338;28;20420;-49
2022/09/16 03:16:02;;;;;;;3.87;1.60;;;13.60;99.90;;;;;;5058332;28;20428;-51
2022/09/16 03:19:13;;;;;;;8.00;1.70;;;13.70;99.90;;;;;;5052518;28;20427;-51
2022/09/16 03:21:57;;;;;;;2.87;1.63;;;13.60;99.90;;;;;;5043056;28;20790;-49
2022/09/16 03:24:35;;;;;;;5.70;1.63;;;13.60;99.90;;;;;;5051448;28;20499;-53
2022/09/16 03:27:12;;;;;;;4.67;1.40;;;13.60;99.90;;;;;;5051976;28;20511;-53
2022/09/16 03:29:47;;;;;;;3.53;1.30;;;13.60;99.90;;;;;;5051815;28;20423;-49
2022/09/16 03:32:29;;;;;;;4.70;1.50;;;13.50;99.90;;;;;;5051772;28;20424;-48
2022/09/16 03:35:10;;;;;;;3.37;1.93;;;13.50;99.90;;;;;;5051430;28;20436;-47
2022/09/16 03:37:38;;;;;;;5.10;1.57;;;13.40;99.90;;;;;;5051826;28;20783;-51
2022/09/16 03:40:13;;;;;;;1.60;1.13;;;13.50;99.90;;;;;;5051464;28;20440;-49
2022/09/16 03:42:43;;;;;;;2.60;1.40;;;13.50;99.90;;;;;;5050502;28;20510;-51
2022/09/16 03:45:15;;;;;;;6.80;1.30;;;13.50;99.90;;;;;;5051532;28;20460;-52
2022/09/16 03:47:43;;;;;;;3.60;1.43;;;13.50;99.90;;;;;;5051709;28;20826;-49
2022/09/16 03:50:09;;;;;;;4.33;1.43;;;13.40;99.90;;;;;;5051289;28;20971;-52
2022/09/16 03:52:34;;;;;;;2.07;1.20;;;13.30;99.90;;;;;;5049958;28;20515;-49
2022/09/16 03:55:00;;;;;;;2.27;1.60;;;13.40;99.90;;;;;;5049858;28;20593;-52
2022/09/16 03:57:27;;;;;;;3.10;1.17;;;13.30;99.90;;;;;;5051484;28;20529;-48
2022/09/16 03:59:52;;;;;;;3.93;1.60;;;13.30;99.90;;;;;;5050234;28;20201;-51
2022/09/16 04:02:18;;;;;;;9.63;1.77;;;13.30;99.90;;;;;;5051239;28;20436;-54
2022/09/16 04:04:44;;;;;;;8.23;2.60;;;13.30;99.90;;;;;;5050400;28;20287;-52
2022/09/16 04:07:10;;;;;;;4.10;1.93;;;13.40;99.90;;;;;;5050971;28;20662;-48
2022/09/16 04:09:36;;;;;;;2.87;1.40;;;13.40;99.90;;;;;;5051328;28;20221;-50
2022/09/16 04:12:02;;;;;;;4.90;2.30;;;13.40;99.90;;;;;;5051075;28;20205;-52
2022/09/16 04:14:28;;;;;;;2.27;1.43;;;13.40;99.90;;;;;;5050470;28;20436;-49
2022/09/16 04:16:54;;;;;;;3.13;1.80;;;13.40;99.90;;;;;;5051074;28;20424;-48
2022/09/16 04:19:20;;;;;;;2.53;1.83;;;13.40;99.90;;;;;;5053726;28;20192;-49
2022/09/16 04:21:45;;;;;;;3.10;1.93;;;13.40;99.90;;;;;;5058711;28;20425;-53
2022/09/16 04:24:12;;;;;;;6.20;2.03;;;13.40;99.90;;;;;;5050137;28;20232;-50
2022/09/16 04:26:37;;;;;;;3.80;1.87;;;13.40;99.90;;;;;;5050838;28;20216;-52
2022/09/16 04:29:03;;;;;;;3.93;1.73;;;13.40;99.90;;;;;;5050759;28;20767;-50
2022/09/16 04:31:29;;;;;;;4.40;1.80;;;13.40;99.90;;;;;;5050687;28;20185;-50
2022/09/16 04:33:55;;;;;;;5.00;2.07;;;13.30;99.90;;;;;;5048572;28;20197;-49
2022/09/16 04:36:20;;;;;;;2.23;1.90;;;13.30;99.90;;;;;;5050832;28;20193;-50
2022/09/16 04:38:48;;;;;;;2.80;2.07;;;13.30;99.90;;;;;;5050628;28;20201;-49
2022/09/16 04:41:17;;;;;;;5.73;1.73;;;13.30;99.90;;;;;;5050769;28;20208;-53
2022/09/16 04:43:43;;;;;;;5.50;2.03;;;13.40;99.90;;;;;;5048390;28;20543;-53
2022/09/16 04:46:09;;;;;;;4.00;1.70;;;13.30;99.90;;;;;;5050493;28;20575;-49
2022/09/16 04:48:35;;;;;;;3.37;1.70;;;13.30;99.90;;;;;;5046943;28;20672;-49
2022/09/16 04:51:09;;;;;;;6.13;1.80;;;13.30;99.90;;;;;;5028552;28;20508;-51
2022/09/16 04:53:37;;;;;;;3.00;1.50;;;13.40;99.90;;;;;;5046815;28;21155;-50
2022/09/16 04:56:04;;;;;;;4.17;1.83;;;13.40;99.90;;;;;;5049586;28;20942;-48
2022/09/16 04:58:30;;;;;;;4.90;2.30;;;13.40;99.90;;;;;;5051935;28;20460;-51
2022/09/16 05:01:02;;;;;;;3.43;1.90;;;13.40;99.90;;;;;;5050011;28;20442;-53
2022/09/16 05:03:27;;;;;;;2.60;1.53;;;13.40;99.90;;;;;;5048785;28;20420;-51
2022/09/16 05:05:53;;;;;;;3.03;1.60;;;13.40;99.90;;;;;;5050016;28;20916;-51
2022/09/16 05:08:18;;;;;;;3.17;1.70;;;13.40;99.90;;;;;;5050002;28;20182;-49
2022/09/16 05:10:45;;;;;;;4.80;1.33;;;13.40;99.90;;;;;;5050172;28;20197;-51
2022/09/16 05:13:10;;;;;;;2.10;1.70;;;13.40;99.90;;;;;;5049382;28;20641;-49
2022/09/16 05:15:36;;;;;;;4.07;2.60;;;13.40;99.90;;;;;;5049827;28;20436;-51
2022/09/16 05:18:02;;;;;;;6.60;1.70;;;13.30;99.90;;;;;;5049820;28;20208;-53
2022/09/16 05:20:27;;;;;;;6.10;1.60;;;13.20;99.90;;;;;;5060703;28;20216;-48
2022/09/16 05:22:53;;;;;;;5.67;1.87;;;13.30;99.90;;;;;;5049454;28;20196;-46
2022/09/16 05:25:19;;;;;;;4.47;1.70;;;13.30;99.90;;;;;;5049774;28;20224;-50
2022/09/16 05:27:44;;;;;;;2.60;1.70;;;13.30;99.90;;;;;;5048768;28;20424;-52
2022/09/16 05:30:13;;;;;;;6.73;1.70;;;13.40;99.90;;;;;;5049539;28;20214;-53
2022/09/16 05:32:38;;;;;;;3.73;1.57;;;13.50;99.90;;;;;;5049486;28;20194;-50
2022/09/16 05:35:04;;;;;;;5.60;1.97;;;13.50;99.90;;;;;;5049207;28;20434;-50
2022/09/16 05:37:30;;;;;;;4.83;1.83;;;13.50;99.90;;;;;;5050162;28;20186;-51
2022/09/16 05:39:56;;;;;;;2.37;1.40;;;13.40;99.90;;;;;;5059257;28;20919;-49
2022/09/16 05:42:21;;;;;;;6.23;1.90;;;13.40;99.90;;;;;;5051346;28;20200;-51
2022/09/16 05:44:47;;;;;;;4.57;1.77;;;13.40;99.90;;;;;;5048901;28;20232;-52
2022/09/16 05:47:13;;;;;;;4.60;1.97;;;13.40;99.90;;;;;;5049440;28;20216;-47
2022/09/16 05:49:39;;;;;;;4.70;1.93;;;13.30;99.90;;;;;;5049621;28;20637;-48
2022/09/16 05:52:04;;;;;;;4.43;1.80;;;13.30;99.90;;;;;;5049681;28;20426;-47
2022/09/16 05:54:30;;;;;;;5.47;1.63;;;13.20;99.90;;;;;;5042362;28;20213;-46
2022/09/16 05:56:56;;;;;;;3.60;1.93;;;13.20;99.90;;;;;;5049657;28;20778;-50
2022/09/16 05:59:22;;;;;;;9.03;1.80;;;13.30;99.90;;;;;;5049037;28;20202;-50
2022/09/16 06:01:49;;;;;;;3.00;2.07;;;13.40;99.90;;;;;;5048352;28;20198;-51
2022/09/16 06:04:14;;;;;;;2.77;1.43;;;13.40;99.90;;;;;;5048785;28;20958;-50
2022/09/16 06:06:43;;;;;;;3.30;1.80;;;13.50;99.90;;;;;;5054157;28;20531;-47
2022/09/16 06:09:20;;;;;;;6.50;2.23;;;13.60;99.90;;;;;;5052217;28;20438;-51
2022/09/16 06:11:49;;;;;;;8.73;1.97;;;13.60;99.90;;;;;;5052618;28;20416;-52
2022/09/16 06:14:16;;;;;;;5.40;2.03;;;13.60;99.90;;;;;;5057382;28;20525;-49
2022/09/16 06:16:42;;;;;;;5.13;1.83;;;13.50;99.90;;;;;;5053022;28;20481;-49
2022/09/16 06:19:14;;;;;;;6.17;2.30;;;13.60;99.90;;;;;;5056849;28;20459;-51
2022/09/16 06:21:40;;;;;;;3.20;2.20;;;13.70;99.90;;;;;;5061809;28;20419;-50
2022/09/16 06:24:07;;;;;;;7.40;2.77;;;13.70;99.90;;;;;;5049390;28;20440;-51
2022/09/16 06:26:34;;;;;;;9.63;2.57;;;13.70;99.90;;;;;;5049286;28;20901;-51
2022/09/16 06:29:00;;;;;;;5.17;2.60;;;13.70;99.90;;;;;;5053224;28;20420;-48
2022/09/16 06:31:27;;;;;;;5.27;2.00;;;13.70;99.90;;;;;;5051577;28;20434;-47
2022/09/16 06:33:54;;;;;;;5.70;2.40;;;13.70;99.90;;;;;;5052342;28;20190;-46
2022/09/16 06:36:21;;;;;;;5.20;2.10;;;13.70;99.90;;;;;;5052983;28;20502;-50
2022/09/16 06:38:47;;;;;;;4.50;2.10;;;13.70;99.90;;;;;;5052826;28;20424;-48
2022/09/16 06:41:14;;;;;;;2.53;2.20;;;13.70;99.90;;;;;;5052476;28;20466;-49
2022/09/16 06:43:40;;;;;;;3.40;1.90;;;13.70;99.90;;;;;;5052359;28;20491;-50
2022/09/16 06:46:15;;;;;;;3.67;2.30;;;13.70;99.90;;;;;;5052847;28;20424;-50
2022/09/16 06:48:43;;;;;;;4.40;2.50;;;13.70;99.90;;;;;;5052889;28;20403;-53
2022/09/16 06:51:11;;;;;;;4.20;2.50;;;13.80;99.90;;;;;;5052508;28;20499;-50
2022/09/16 06:53:38;;;;;;;4.43;2.60;;;13.80;99.90;;;;;;5051169;28;20755;-51
2022/09/16 06:56:06;;;;;;;7.10;2.60;;;13.70;99.90;;;;;;5050776;28;20478;-48
2022/09/16 06:58:33;;;;;;;3.40;2.33;;;13.70;99.90;;;;;;5051553;28;20475;-48
2022/09/16 07:01:03;;;;;;;3.83;2.60;;;13.80;99.90;;;;;;5054126;28;20448;-51
2022/09/16 07:03:29;;;;;;;4.03;2.43;;;13.80;99.90;;;;;;5071710;28;20442;-48
2022/09/16 07:05:56;;;;;;;3.70;2.57;;;13.90;99.90;;;;;;5067998;28;20446;-50
2022/09/16 07:08:23;;;;;;;4.90;2.50;;;13.90;99.90;;;;;;5041363;28;20454;-48
2022/09/16 07:11:09;;;;;;;3.77;2.23;;;13.90;99.90;;;;;;5045072;28;20464;-49
2022/09/16 07:13:35;;;;;;;6.87;2.67;;;13.90;99.90;;;;;;5044566;28;20879;-48
2022/09/16 07:16:03;;;;;;;5.40;2.83;;;13.90;99.90;;;;;;5052002;28;20420;-52
2022/09/16 07:18:29;;;;;;;5.63;2.90;;;13.90;99.90;;;;;;5050669;28;20197;-47
2022/09/16 07:21:28;;;;;;;4.90;3.03;;;14.00;99.90;;;;;;5061318;28;20424;-50
2022/09/16 07:23:56;;;;;;;3.87;3.20;;;14.00;99.90;;;;;;5041136;28;20887;-52
2022/09/16 07:26:27;;;;;;;7.50;3.43;;;14.10;99.90;;;;;;5051899;28;20420;-47
2022/09/16 07:28:54;;;;;;;12.23;4.60;;;14.20;99.90;;;;;;5051621;28;20421;-50
2022/09/16 07:31:29;;;;;;;7.47;3.23;;;14.20;99.90;;;;;;5050362;28;20424;-48
2022/09/16 07:33:57;;;;;;;5.43;3.50;;;14.30;99.90;;;;;;5050886;28;20428;-49
2022/09/16 07:36:26;;;;;;;3.83;3.50;;;14.30;99.90;;;;;;5051717;28;20470;-50
2022/09/16 07:38:53;;;;;;;5.13;3.20;;;14.40;99.90;;;;;;5051586;28;21014;-51
2022/09/16 07:41:22;;;;;;;5.10;3.57;;;14.50;99.90;;;;;;5051550;28;20420;-47
2022/09/16 07:43:48;;;;;;;5.50;3.77;;;14.50;99.90;;;;;;5050747;28;20495;-47
2022/09/16 07:46:17;;;;;;;8.53;3.87;;;14.50;99.90;;;;;;5051763;28;20453;-49
2022/09/16 07:48:44;;;;;;;7.63;4.27;;;14.50;99.90;;;;;;5051651;28;20915;-48
2022/09/16 07:51:15;;;;;;;7.63;3.50;;;14.60;99.90;;;;;;5052190;28;20444;-48
2022/09/16 07:53:41;;;;;;;3.97;3.37;;;14.60;99.90;;;;;;5069530;28;20438;-47
2022/09/16 07:56:16;;;;;;;8.30;3.67;;;14.70;99.90;;;;;;5071163;28;20424;-48
2022/09/16 07:58:44;;;;;;;5.20;3.60;;;14.90;99.90;;;;;;5071517;28;20510;-49
2022/09/16 08:01:10;;;;;;;7.93;3.63;;;15.00;99.90;;;;;;5071388;28;20507;-49
2022/09/16 08:03:37;;;;;;;6.23;4.03;;;15.10;99.90;;;;;;5070657;28;20455;-55
2022/09/16 08:06:09;;;;;;;5.60;3.47;;;15.10;99.90;;;;;;5064624;28;20445;-49
2022/09/16 08:08:35;;;;;;;7.00;4.80;;;15.10;99.90;;;;;;5041877;28;20516;-53
2022/09/16 08:11:02;;;;;;;9.13;6.63;;;15.20;99.90;;;;;;5051227;28;20966;-49
2022/09/16 08:13:30;;;;;;;6.87;5.20;;;15.30;99.90;;;;;;5050786;28;20561;-50
2022/09/16 08:16:12;;;;;;;5.17;4.50;;;15.20;99.90;;;;;;5051127;28;20427;-48
2022/09/16 08:18:38;;;;;;;6.10;4.40;;;15.10;99.90;;;;;;5051210;28;20420;-48
2022/09/16 08:21:06;;;;;;;6.30;3.70;;;15.10;99.90;;;;;;5061643;28;20421;-50
2022/09/16 08:23:33;;;;;;;8.83;3.57;;;15.10;99.90;;;;;;5050492;28;20420;-50
2022/09/16 08:25:59;;;;;;;3.67;2.70;;;15.10;99.90;;;;;;5050938;28;20421;-50
2022/09/16 08:28:26;;;;;;;6.83;3.47;;;15.10;99.90;;;;;;5050818;28;20423;-49
2022/09/16 08:30:52;;;;;;;2.90;2.57;;;15.20;99.90;;;;;;5050427;28;20470;-50
2022/09/16 08:33:20;;;;;;;8.23;3.50;;;15.30;99.90;;;;;;5050052;28;20424;-52
2022/09/16 08:36:21;;;;;;;11.90;4.73;;;15.30;99.90;;;;;;5037211;28;21006;-50
2022/09/16 08:38:49;;;;;;;4.80;2.53;;;15.30;99.90;;;;;;5050669;28;20424;-49
2022/09/16 08:41:53;;;;;;;3.13;2.50;;;15.30;99.90;;;;;;5050701;28;20416;-52
2022/09/16 08:44:45;;;;;;;6.17;2.90;;;15.30;99.90;;;;;;5048642;28;20458;-47
2022/09/16 08:48:08;;;;;;;3.57;2.00;;;15.20;99.90;;;;;;5049468;28;20499;-47
2022/09/16 08:50:38;;;;;;;4.70;1.70;;;15.10;99.90;;;;;;5067738;28;20427;-53
2022/09/16 08:53:32;;;;;;;4.90;1.80;;;15.20;99.90;;;;;;5065382;28;20481;-49
2022/09/16 08:56:01;;;;;;;4.90;2.50;;;15.30;99.90;;;;;;5041270;28;20428;-49
2022/09/16 08:58:43;;;;;;;3.60;2.50;;;15.40;99.90;;;;;;5048931;28;20412;-51
2022/09/16 09:01:39;;;;;;;3.07;2.40;;;15.60;99.90;;;;;;5050392;28;20522;-50
2022/09/16 09:04:05;;;;;;;5.00;2.03;;;15.70;99.90;;;;;;5050527;28;20572;-52
2022/09/16 09:07:03;;;;;;;5.17;2.40;;;15.70;99.90;;;;;;5050050;28;20933;-48
2022/09/16 09:09:54;;;;;;;3.77;2.27;;;15.80;99.90;;;;;;5050086;28;20762;-48
2022/09/16 09:12:25;;;;;;;2.57;1.90;;;15.90;99.90;;;;;;5049931;28;20501;-52
2022/09/16 09:15:02;;;;;;;5.30;2.30;;;16.00;99.90;;;;;;5049710;28;20420;-49
2022/09/16 09:17:40;;;;;;;7.80;1.80;;;16.10;99.90;;;;;;5049524;28;20440;-49
2022/09/16 09:20:21;;;;;;;4.10;2.10;;;16.30;99.90;;;;;;5059463;28;20498;-48
2022/09/16 09:22:58;;;;;;;5.57;1.60;;;16.30;99.90;;;;;;5036965;28;20787;-48
2022/09/16 09:25:47;;;;;;;3.63;1.90;;;16.50;99.90;;;;;;5049862;28;21127;-50
2022/09/16 09:28:24;;;;;;;4.50;1.70;;;16.60;99.90;;;;;;5049855;28;20416;-49
2022/09/16 09:31:13;;;;;;;3.40;1.40;;;16.70;99.90;;;;;;5049947;28;20931;-51
2022/09/16 09:34:14;;;;;;;4.03;1.47;;;16.60;99.90;;;;;;5049351;28;20482;-49
2022/09/16 09:36:44;;;;;;;3.43;1.37;;;16.50;99.90;;;;;;5049588;28;20435;-48
2022/09/16 09:39:27;;;;;;;1.53;1.10;;;16.30;99.90;;;;;;5049618;28;20404;-47
2022/09/16 09:42:10;;;;;;;3.93;1.77;;;16.40;99.90;;;;;;5049170;28;20420;-50
2022/09/16 09:44:54;;;;;;;3.10;1.10;;;16.40;99.90;;;;;;5048720;28;20824;-49
2022/09/16 09:47:37;;;;;;;3.97;1.27;;;16.40;99.90;;;;;;5049872;28;20456;-52
2022/09/16 09:50:32;;;;;;;2.00;1.70;;;16.40;99.90;;;;;;5049641;28;20416;-48
2022/09/16 09:53:22;;;;;;;3.47;1.03;;;16.40;99.90;;;;;;5047889;28;20516;-50
2022/09/16 09:55:56;;;;;;;3.50;1.10;;;16.40;99.90;;;;;;5049754;28;20794;-48
2022/09/16 09:58:39;;;;;;;2.03;0.83;;;16.30;99.90;;;;;;5049623;28;20412;-47
2022/09/16 10:01:06;;;;;;;1.87;1.00;;;16.30;99.90;;;;;;5048126;28;20535;-47
2022/09/16 10:03:31;;;;;;;5.53;1.27;;;16.30;99.90;;;;;;5048691;28;20466;-52
2022/09/16 10:05:57;;;;;;;1.53;0.80;;;16.40;99.90;;;;;;5064744;28;20456;-47
2022/09/16 10:08:35;;;;;;;2.97;0.80;;;16.50;99.90;;;;;;5049553;28;20591;-49
2022/09/16 10:11:13;;;;;;;3.67;1.07;;;16.40;99.90;;;;;;5049480;28;20569;-46
2022/09/16 10:13:56;;;;;;;3.00;0.90;;;16.50;99.90;;;;;;5048448;28;20428;-49
2022/09/16 10:16:36;;;;;;;2.70;0.80;;;16.50;99.90;;;;;;5049601;28;20515;-53
2022/09/16 10:19:05;;;;;;;2.00;0.90;;;16.40;99.90;;;;;;5049688;28;20463;-54
2022/09/16 10:21:45;;;;;;;4.90;1.20;;;16.50;99.90;;;;;;5058885;28;20432;-50
2022/09/16 10:24:32;;;;;;;2.77;1.17;;;16.60;99.90;;;;;;5048326;28;20456;-49
2022/09/16 10:27:00;;;;;;;3.60;0.90;;;16.60;99.90;;;;;;5049200;28;20426;-47
2022/09/16 10:29:26;;;;;;;2.90;0.90;;;16.60;99.90;;;;;;5047407;28;20444;-47
2022/09/16 10:31:52;;;;;;;4.43;1.00;;;16.60;99.90;;;;;;5048717;28;20416;-49
2022/09/16 10:34:33;;;;;;;4.73;1.30;;;16.70;99.90;;;;;;5048430;28;20819;-52
2022/09/16 10:37:02;;;;;;;3.70;0.93;;;16.60;99.90;;;;;;5049218;28;20439;-53
2022/09/16 10:39:29;;;;;;;1.47;0.80;;;16.60;99.90;;;;;;5049229;28;20432;-53
2022/09/16 10:41:55;;;;;;;4.00;1.00;;;16.50;99.90;;;;;;5049143;28;20428;-48
2022/09/16 10:44:30;;;;;;;3.33;1.20;;;16.50;99.90;;;;;;5048591;28;20463;-49
2022/09/16 10:47:08;;;;;;;7.20;1.10;;;16.70;99.90;;;;;;5048915;28;20419;-52
2022/09/16 10:49:46;;;;;;;1.57;0.80;;;17.00;99.90;;;;;;5049209;28;20759;-48
2022/09/16 10:52:21;;;;;;;1.57;0.53;;;17.10;99.90;;;;;;5050045;28;20473;-47
2022/09/16 10:54:48;;;;;;;2.47;0.70;;;17.20;99.90;;;;;;5050689;28;20424;-50
2022/09/16 10:57:29;;;;;;;3.70;1.27;;;17.20;99.90;;;;;;5052622;28;20843;-49
2022/09/16 11:00:38;;;;;;;1.83;0.77;;;17.20;99.90;;;;;;5052595;28;20452;-49
2022/09/16 11:03:35;;;;;;;1.30;0.70;;;17.10;99.90;;;;;;5040363;28;21023;-48
2022/09/16 11:06:03;;;;;;;2.40;0.90;;;17.10;99.90;;;;;;5052311;28;20979;-47
2022/09/16 11:08:41;;;;;;;2.07;0.70;;;17.20;99.90;;;;;;5052372;28;20431;-48
2022/09/16 11:11:27;;;;;;;1.90;1.07;;;17.30;99.90;;;;;;5052243;28;20533;-49
2022/09/16 11:13:57;;;;;;;4.60;1.00;;;17.30;99.90;;;;;;5051604;28;20946;-53
2022/09/16 11:16:41;;;;;;;5.60;1.57;;;17.30;99.90;;;;;;5052254;28;20420;-47
2022/09/16 11:19:19;;;;;;;5.10;0.90;;;17.30;99.90;;;;;;5053408;28;20780;-48
2022/09/16 11:22:14;;;;;;;3.13;1.03;;;17.40;99.90;;;;;;5060211;28;20412;-48
2022/09/16 11:25:05;;;;;;;2.40;0.97;;;17.50;99.90;;;;;;5051477;28;20471;-50
2022/09/16 11:27:55;;;;;;;5.63;1.00;;;17.80;99.90;;;;;;5042215;28;20436;-50
2022/09/16 11:30:22;;;;;;;2.93;1.07;;;18.10;99.90;;;;;;5052027;28;20424;-50
2022/09/16 11:33:13;;;;;;;3.43;0.97;;;18.20;99.30;;;;;;5050881;28;20459;-49
2022/09/16 11:35:59;;;;;;;2.03;1.67;;;18.20;99.70;;;;;;5067239;28;20436;-48
2022/09/16 11:38:25;;;;;;;2.10;1.17;;;18.20;99.80;;;;;;5051772;28;20460;-49
2022/09/16 11:40:56;;;;;;;2.70;0.70;;;18.20;99.90;;;;;;5051909;28;20455;-47
2022/09/16 11:44:02;;;;;;;1.10;0.80;;;18.30;99.90;;;;;;5050910;28;20292;-48
2022/09/16 11:46:43;;;;;;;2.70;0.60;;;18.30;99.20;;;;;;5051636;28;20431;-49
2022/09/16 11:49:41;;;;;;;3.07;1.00;;;18.40;99.90;;;;;;5051823;28;20413;-47
2022/09/16 11:52:30;;;;;;;0.80;0.70;;;18.50;98.70;;;;;;5051693;28;20459;-49
2022/09/16 11:55:06;;;;;;;2.20;1.00;;;18.50;98.70;;;;;;5049848;28;20469;-49
2022/09/16 11:57:40;;;;;;;3.43;1.30;;;18.50;98.10;;;;;;5051453;28;20902;-49
2022/09/16 12:00:17;;;;;;;1.60;0.50;;;18.50;97.80;;;;;;5050312;28;20424;-47
2022/09/16 12:02:50;;;;;;;1.17;0.50;;;18.40;97.00;;;;;;5050649;28;20426;-49
2022/09/16 12:05:29;;;;;;;6.17;1.00;;;18.50;98.10;;;;;;5050675;28;20469;-48
2022/09/16 12:08:23;;;;;;;3.63;0.73;;;18.60;97.90;;;;;;5051090;28;20419;-47
2022/09/16 12:10:51;;;;;;;3.60;1.10;;;18.80;97.00;;;;;;5051431;28;20857;-48
2022/09/16 12:13:38;;;;;;;6.67;1.73;;;18.80;97.60;;;;;;5049183;28;20839;-48
2022/09/16 12:16:17;;;;;;;4.03;1.27;;;18.50;97.80;;;;;;5051165;28;20424;-47
2022/09/16 12:18:57;;;;;;;2.63;1.50;;;18.20;99.90;;;;;;5050659;28;20436;-49
2022/09/16 12:21:33;;;;;;;3.50;1.00;;;17.90;99.90;;;;;;5040397;28;20507;-51
2022/09/16 12:24:23;;;;;;;2.07;0.87;;;17.70;99.90;;;;;;5050191;28;20481;-50
2022/09/16 12:27:00;;;;;;;1.90;1.20;;;17.40;99.70;;;;;;5052720;28;20432;-50
2022/09/16 12:29:30;;;;;;;2.40;0.70;;;17.40;99.90;;;;;;5050812;28;20481;-51
2022/09/16 12:32:11;;;;;;;3.00;0.70;;;17.30;99.80;;;;;;5050377;28;20412;-48
2022/09/16 12:34:47;;;;;;;3.43;1.07;;;17.50;99.90;;;;;;5049068;28;20416;-52
2022/09/16 12:37:34;;;;;;;0.87;0.43;;;17.60;99.90;;;;;;5050305;28;20446;-52
2022/09/16 12:40:01;;;;;;;1.77;0.70;;;17.70;99.90;;;;;;5050541;28;20507;-50
2022/09/16 12:42:29;;;;;;;1.47;0.60;;;17.70;99.90;;;;;;5050604;28;20420;-51
2022/09/16 12:45:03;;;;;;;1.27;0.70;;;17.80;99.90;;;;;;5049990;28;20460;-50
2022/09/16 12:47:55;;;;;;;1.27;0.83;;;17.70;99.90;;;;;;5050669;28;20415;-51
2022/09/16 12:50:52;;;;;;;0.70;0.50;;;17.70;99.90;;;;;;5050680;28;20409;-49
2022/09/16 12:53:53;;;;;;;2.23;0.60;;;17.30;99.90;;;;;;5048343;28;20490;-52
2022/09/16 12:56:40;;;;;;;1.77;0.63;;;16.90;99.90;;;;;;5052376;28;20859;-50
2022/09/16 12:59:12;;;;;;;1.27;0.40;;;16.50;99.90;;;;;;5050416;28;20420;-49
2022/09/16 13:01:43;;;;;;;1.50;0.57;;;16.10;99.90;;;;;;5050427;28;20761;-49
2022/09/16 13:04:13;;;;;;;3.97;0.60;;;15.80;99.90;;;;;;5049328;28;20448;-50
2022/09/16 13:06:46;;;;;;;4.00;0.80;;;15.60;99.90;;;;;;5048921;28;20424;-46
2022/09/16 13:09:24;;;;;;;1.50;0.70;;;15.50;99.90;;;;;;5050119;28;20459;-50
2022/09/16 13:11:59;;;;;;;3.73;0.50;;;15.50;99.90;;;;;;5050307;28;20424;-53
2022/09/16 13:14:31;;;;;;;1.10;0.87;;;15.30;99.90;;;;;;5049324;28;20424;-49
2022/09/16 13:16:59;;;;;;;2.37;0.90;;;15.00;99.90;;;;;;5049038;28;20934;-50
2022/09/16 13:19:30;;;;;;;3.00;1.10;;;14.90;99.90;;;;;;5053743;28;20415;-46
2022/09/16 13:22:00;;;;;;;4.90;1.50;;;14.60;99.90;;;;;;5056027;28;20432;-47